createdAt,value
2017-10-23T00:00:22.307Z,93958.98
2017-10-23T00:02:50.032Z,93964.74
2017-10-23T00:05:17.769Z,93958.41
2017-10-23T00:07:45.528Z,93954.41
2017-10-23T00:10:13.245Z,93954.51
2017-10-23T00:12:41.125Z,93951.03
2017-10-23T00:15:08.911Z,93940.91
2017-10-23T00:17:36.760Z,93940.41
2017-10-23T00:20:04.475Z,93940.90
2017-10-23T00:22:32.192Z,93928.38
2017-10-23T00:24:59.915Z,93927.98
2017-10-23T00:27:27.611Z,93930.37
2017-10-23T00:29:55.666Z,93922.42
2017-10-23T00:32:23.749Z,93915.17
2017-10-23T00:34:51.504Z,93910.14
2017-10-23T00:37:19.387Z,93913.78
2017-10-23T00:39:47.154Z,93916.45
2017-10-23T00:42:14.896Z,93921.03
2017-10-23T00:44:42.601Z,93917.95
2017-10-23T00:47:10.328Z,93928.19
2017-10-23T00:49:38.019Z,93929.08
2017-10-23T00:52:05.827Z,93935.07
2017-10-23T00:54:34.324Z,93951.86
2017-10-23T00:57:02.133Z,93956.39
2017-10-23T00:59:30.016Z,93962.28
2017-10-23T01:01:58.127Z,93958.31
2017-10-23T01:04:25.902Z,93956.53
2017-10-23T01:06:53.594Z,93958.77
2017-10-23T01:09:21.358Z,93968.67
2017-10-23T01:11:49.075Z,93974.67
2017-10-23T01:14:16.906Z,93964.37
2017-10-23T01:16:44.615Z,93968.75
2017-10-23T01:19:13.371Z,93970.44
2017-10-23T01:21:41.177Z,93974.80
2017-10-23T01:24:08.904Z,93969.14
2017-10-23T01:26:36.720Z,93966.26
2017-10-23T01:29:04.446Z,93965.17
2017-10-23T01:31:32.312Z,93962.19
2017-10-23T01:34:00.054Z,93958.81
2017-10-23T01:36:27.833Z,93958.22
2017-10-23T01:38:55.624Z,93964.17
2017-10-23T01:41:23.374Z,93952.95
2017-10-23T01:43:51.983Z,93954.23
2017-10-23T01:46:19.733Z,93957.32
2017-10-23T01:48:47.566Z,93951.98
2017-10-23T01:51:15.373Z,93954.86
2017-10-23T01:53:43.107Z,93951.29
2017-10-23T01:56:10.927Z,93950.09
2017-10-23T01:58:38.739Z,93951.09
2017-10-23T02:01:06.476Z,93946.02
2017-10-23T02:03:34.222Z,93958.34
2017-10-23T02:06:02.078Z,93951.28
2017-10-23T02:08:29.987Z,93952.98
2017-10-23T02:10:57.684Z,93952.98
2017-10-23T02:13:25.386Z,93955.46
2017-10-23T02:15:53.321Z,93952.48
2017-10-23T02:18:21.127Z,93947.52
2017-10-23T02:20:48.886Z,93950.39
2017-10-23T02:23:16.677Z,93961.22
2017-10-23T02:25:44.487Z,93959.42
2017-10-23T02:28:12.380Z,93956.05
2017-10-23T02:30:40.308Z,93965.08
2017-10-23T02:33:08.038Z,93957.83
2017-10-23T02:35:35.769Z,93948.80
2017-10-23T02:38:03.523Z,93965.59
2017-10-23T02:40:31.221Z,93968.88
2017-10-23T02:42:58.902Z,93969.77
2017-10-23T02:45:26.661Z,93960.54
2017-10-23T02:47:54.348Z,93963.52
2017-10-23T02:50:22.106Z,93965.40
2017-10-23T02:52:49.838Z,93968.66
2017-10-23T02:55:17.585Z,93968.28
2017-10-23T02:57:45.335Z,93960.44
2017-10-23T03:00:13.044Z,93963.70
2017-10-23T03:02:40.725Z,93963.61
2017-10-23T03:05:08.476Z,93966.68
2017-10-23T03:07:36.186Z,93965.30
2017-10-23T03:10:03.929Z,93969.16
2017-10-23T03:12:31.711Z,93966.19
2017-10-23T03:14:59.473Z,93966.58
2017-10-23T03:17:27.240Z,93970.94
2017-10-23T03:19:54.971Z,93966.87
2017-10-23T03:22:22.716Z,93973.52
2017-10-23T03:24:50.458Z,93972.23
2017-10-23T03:27:18.243Z,93963.51
2017-10-23T03:29:46.239Z,93968.56
2017-10-23T03:32:14.044Z,93964.48
2017-10-23T03:34:41.868Z,93968.45
2017-10-23T03:37:09.714Z,93969.64
2017-10-23T03:39:37.470Z,93971.11
2017-10-23T03:42:05.193Z,93970.63
2017-10-23T03:44:33.408Z,93965.77
2017-10-23T03:47:01.152Z,93964.58
2017-10-23T03:49:28.864Z,93965.58
2017-10-23T03:51:56.669Z,93969.36
2017-10-23T03:54:24.361Z,93967.96
2017-10-23T03:56:52.086Z,93969.34
2017-10-23T03:59:19.849Z,93955.05
2017-10-23T04:43:27.403Z,93964.97
2017-10-23T04:45:55.119Z,93953.25
2017-10-23T04:48:22.949Z,93956.05
2017-10-23T04:50:50.729Z,93948.09
2017-10-23T04:53:18.533Z,93949.78
2017-10-23T04:55:46.312Z,93948.79
2017-10-23T04:58:14.079Z,93950.88
2017-10-23T05:00:42.136Z,93940.66
2017-10-23T05:03:10.062Z,93947.69
2017-10-23T05:05:37.770Z,93935.69
2017-10-23T05:08:06.398Z,93946.22
2017-10-23T05:10:34.135Z,93951.17
2017-10-23T05:13:02.220Z,93947.50
2017-10-23T05:15:30.074Z,93947.30
2017-10-23T05:17:57.842Z,93951.08
2017-10-23T05:20:25.656Z,93952.77
2017-10-23T05:22:53.443Z,93948.80
2017-10-23T05:25:21.168Z,93952.84
2017-10-23T05:27:48.908Z,93949.17
2017-10-23T05:30:16.788Z,93954.05
2017-10-23T05:32:44.553Z,93955.09
2017-10-23T05:35:12.237Z,93958.00
2017-10-23T05:37:40.004Z,93965.34
2017-10-23T05:40:07.726Z,93956.81
2017-10-23T05:42:35.481Z,93961.19
2017-10-23T05:45:03.246Z,93962.61
2017-10-23T05:47:32.349Z,93960.61
2017-10-23T05:50:00.160Z,93961.59
2017-10-23T05:52:27.928Z,93962.61
2017-10-23T05:54:55.669Z,93962.10
2017-10-23T05:57:23.470Z,93960.98
2017-10-23T05:59:51.986Z,93965.95
2017-10-23T06:02:19.758Z,93972.29
2017-10-23T06:04:47.507Z,93967.64
2017-10-23T06:07:15.373Z,93969.34
2017-10-23T06:09:43.244Z,93965.97
2017-10-23T06:12:10.988Z,93975.70
2017-10-23T06:14:38.857Z,93973.70
2017-10-23T06:17:06.630Z,93977.19
2017-10-23T06:19:34.460Z,93973.11
2017-10-23T06:22:02.260Z,93975.10
2017-10-23T06:24:30.089Z,93983.51
2017-10-23T06:26:57.943Z,93975.88
2017-10-23T06:29:25.775Z,93982.05
2017-10-23T06:31:53.596Z,93985.13
2017-10-23T06:34:21.340Z,93982.42
2017-10-23T06:36:49.096Z,93995.72
2017-10-23T06:39:16.921Z,93986.30
2017-10-23T06:41:44.644Z,93989.67
2017-10-23T06:44:12.358Z,93990.38
2017-10-23T06:46:40.160Z,93993.76
2017-10-23T06:49:07.964Z,93988.99
2017-10-23T06:51:35.675Z,93994.37
2017-10-23T06:54:03.462Z,94002.92
2017-10-23T06:56:31.188Z,94010.76
2017-10-23T06:58:58.962Z,93999.02
2017-10-23T07:01:26.803Z,93995.76
2017-10-23T07:03:54.667Z,94001.92
2017-10-23T07:06:22.408Z,94000.84
2017-10-23T07:08:50.232Z,93993.27
2017-10-23T07:11:18.040Z,94003.52
2017-10-23T07:13:45.796Z,94003.81
2017-10-23T07:16:13.582Z,94009.06
2017-10-23T07:18:41.299Z,93999.33
2017-10-23T07:21:09.118Z,94009.58
2017-10-23T07:23:37.002Z,94005.70
2017-10-23T07:26:04.802Z,94001.23
2017-10-23T07:28:32.543Z,94015.92
2017-10-23T07:31:00.273Z,94021.59
2017-10-23T07:33:28.064Z,94013.94
2017-10-23T07:35:55.812Z,94012.94
2017-10-23T07:38:23.584Z,94014.44
2017-10-23T07:40:51.306Z,94013.84
2017-10-23T07:43:19.059Z,94021.59
2017-10-23T07:45:46.812Z,94013.43
2017-10-23T07:48:14.507Z,94017.60
2017-10-23T07:50:42.292Z,94026.25
2017-10-23T07:53:10.071Z,94029.02
2017-10-23T07:55:37.830Z,94021.59
2017-10-23T07:58:05.575Z,94036.86
2017-10-23T08:00:33.287Z,94028.14
2017-10-23T08:03:01.055Z,94036.58
2017-10-23T08:05:28.758Z,94028.03
2017-10-23T08:07:56.506Z,94030.92
2017-10-23T08:10:24.220Z,94034.69
2017-10-23T08:12:51.985Z,94032.10
2017-10-23T08:15:19.724Z,94030.53
2017-10-23T08:17:47.404Z,94036.58
2017-10-23T08:20:15.107Z,94036.28
2017-10-23T08:22:42.876Z,94045.12
2017-10-23T08:25:10.785Z,94030.83
2017-10-23T08:27:38.506Z,94048.79
2017-10-23T08:30:06.204Z,94048.20
2017-10-23T08:32:34.095Z,94033.36
2017-10-23T08:35:01.855Z,94038.86
2017-10-23T08:37:30.141Z,94049.59
2017-10-23T08:39:57.917Z,94038.27
2017-10-23T08:42:25.611Z,94038.84
2017-10-23T08:44:53.416Z,94047.81
2017-10-23T08:47:21.757Z,94054.75
2017-10-23T08:49:49.427Z,94049.58
2017-10-23T08:52:17.217Z,94049.09
2017-10-23T08:54:44.986Z,94062.10
2017-10-23T08:57:12.711Z,94058.53
2017-10-23T08:59:40.942Z,94050.89
2017-10-23T09:02:08.722Z,94052.34
2017-10-23T09:04:36.537Z,94062.91
2017-10-23T09:07:04.274Z,94075.39
2017-10-23T09:09:32.251Z,94055.23
2017-10-23T09:11:59.962Z,94070.23
2017-10-23T09:14:27.688Z,94077.60
2017-10-23T09:16:55.445Z,94061.11
2017-10-23T09:19:23.214Z,94060.42
2017-10-23T09:21:50.991Z,94069.66
2017-10-23T09:24:18.764Z,94075.72
2017-10-23T09:26:46.494Z,94075.00
2017-10-23T09:29:14.245Z,94083.87
2017-10-23T09:31:43.299Z,94075.41
2017-10-23T09:34:11.043Z,94078.87
2017-10-23T09:36:38.841Z,94081.17
2017-10-23T09:39:06.611Z,94090.00
2017-10-23T09:41:34.295Z,94096.89
2017-10-23T09:44:02.025Z,94088.72
2017-10-23T09:46:29.773Z,94087.92
2017-10-23T09:48:57.577Z,94097.88
2017-10-23T09:51:25.247Z,94093.09
2017-10-23T09:53:52.935Z,94100.85
2017-10-23T09:56:20.716Z,94099.16
2017-10-23T09:58:48.408Z,94099.77
2017-10-23T10:01:16.151Z,94091.16
2017-10-23T10:03:43.914Z,94098.22
2017-10-23T10:06:11.698Z,94113.45
2017-10-23T10:08:39.454Z,94109.78
2017-10-23T10:11:07.970Z,94104.31
2017-10-23T10:13:35.711Z,94103.94
2017-10-23T10:16:03.517Z,94103.33
2017-10-23T10:18:31.225Z,94102.55
2017-10-23T10:20:58.956Z,94100.83
2017-10-23T10:23:26.717Z,94097.77
2017-10-23T10:25:54.448Z,94101.05
2017-10-23T10:28:22.267Z,94109.99
2017-10-23T10:30:50.945Z,94107.30
2017-10-23T10:33:18.685Z,94095.47
2017-10-23T10:35:46.398Z,94101.45
2017-10-23T10:38:14.464Z,94109.68
2017-10-23T10:40:42.324Z,94102.22
2017-10-23T10:43:10.164Z,94091.05
2017-10-23T10:45:37.915Z,94089.42
2017-10-23T10:48:05.663Z,94092.61
2017-10-23T10:50:34.470Z,94093.64
2017-10-23T10:53:02.213Z,94097.52
2017-10-23T10:55:29.998Z,94090.16
2017-10-23T10:57:58.278Z,94095.58
2017-10-23T11:00:26.037Z,94097.92
2017-10-23T11:02:54.545Z,94095.92
2017-10-23T11:05:22.397Z,94089.61
2017-10-23T11:07:50.125Z,94101.16
2017-10-23T11:10:17.991Z,94100.96
2017-10-23T11:12:46.104Z,94098.37
2017-10-23T11:15:13.883Z,94092.80
2017-10-23T11:17:41.629Z,94086.24
2017-10-23T11:20:09.425Z,94094.64
2017-10-23T11:22:37.236Z,94099.52
2017-10-23T11:25:05.398Z,94104.43
2017-10-23T11:27:33.148Z,94099.61
2017-10-23T11:30:00.909Z,94103.25
2017-10-23T11:32:28.736Z,94108.72
2017-10-23T11:34:57.617Z,94108.47
2017-10-23T11:37:25.530Z,94107.20
2017-10-23T11:39:53.303Z,94098.72
2017-10-23T11:42:21.082Z,94109.20
2017-10-23T11:44:48.787Z,94112.94
2017-10-23T11:47:16.627Z,94108.16
2017-10-23T11:49:44.395Z,94112.77
2017-10-23T11:52:12.169Z,94119.63
2017-10-23T11:54:39.974Z,94116.41
2017-10-23T11:57:07.733Z,94112.87
2017-10-23T11:59:35.533Z,94121.89
2017-10-23T12:02:03.521Z,94122.63
2017-10-23T12:04:31.243Z,94133.77
2017-10-23T12:06:58.989Z,94123.57
2017-10-23T12:09:26.753Z,94116.81
2017-10-23T12:11:54.522Z,94128.61
2017-10-23T12:14:22.288Z,94133.84
2017-10-23T12:16:50.295Z,94128.97
2017-10-23T12:19:18.157Z,94130.60
2017-10-23T12:21:46.862Z,94137.09
2017-10-23T12:24:14.633Z,94129.11
2017-10-23T12:26:42.389Z,94139.81
2017-10-23T12:29:10.143Z,94133.63
2017-10-23T12:31:37.924Z,94124.93
2017-10-23T12:34:05.651Z,94138.36
2017-10-23T12:36:33.377Z,94139.24
2017-10-23T12:39:01.143Z,94138.71
2017-10-23T12:41:28.982Z,94136.97
2017-10-23T12:43:57.767Z,94138.22
2017-10-23T12:46:25.533Z,94145.55
2017-10-23T12:48:53.253Z,94144.36
2017-10-23T12:51:21.022Z,94143.83
2017-10-23T12:53:48.982Z,94138.20
2017-10-23T12:56:17.337Z,94140.65
2017-10-23T12:58:45.689Z,94148.53
2017-10-23T13:01:13.382Z,94156.66
2017-10-23T13:03:42.024Z,94155.49
2017-10-23T13:06:09.780Z,94159.08
2017-10-23T13:08:39.206Z,94146.34
2017-10-23T13:11:07.016Z,94157.28
2017-10-23T13:13:35.760Z,94169.23
2017-10-23T13:16:03.671Z,94176.89
2017-10-23T13:18:31.404Z,94172.30
2017-10-23T13:20:59.555Z,94177.66
2017-10-23T13:23:27.418Z,94168.55
2017-10-23T13:25:56.201Z,94175.60
2017-10-23T13:28:23.897Z,94170.21
2017-10-23T13:30:51.699Z,94171.42
2017-10-23T13:33:19.652Z,94186.53
2017-10-23T13:35:47.368Z,94189.11
2017-10-23T13:38:15.214Z,94181.05
2017-10-23T13:40:42.996Z,94182.44
2017-10-23T13:43:10.773Z,94187.91
2017-10-23T13:45:38.785Z,94178.37
2017-10-23T13:48:06.589Z,94175.38
2017-10-23T13:50:34.310Z,94175.97
2017-10-23T13:53:02.049Z,94183.70
2017-10-23T13:55:29.827Z,94194.06
2017-10-23T13:57:58.504Z,94182.23
2017-10-23T14:00:26.318Z,94187.02
2017-10-23T14:02:54.086Z,94179.34
2017-10-23T14:05:21.925Z,94188.01
2017-10-23T14:07:50.593Z,94188.55
2017-10-23T14:10:19.182Z,94184.41
2017-10-23T14:12:47.006Z,94183.72
2017-10-23T14:15:15.499Z,94193.56
2017-10-23T14:17:43.399Z,94198.21
2017-10-23T14:20:11.161Z,94193.94
2017-10-23T14:22:48.687Z,94190.78
2017-10-23T14:25:16.448Z,94190.77
2017-10-23T14:27:44.397Z,94188.70
2017-10-23T14:30:12.142Z,94200.13
2017-10-23T14:32:40.040Z,94189.37
2017-10-23T14:35:07.888Z,94187.50
2017-10-23T14:37:35.857Z,94188.20
2017-10-23T14:40:03.818Z,94188.70
2017-10-23T14:42:31.686Z,94186.73
2017-10-23T14:44:59.641Z,94179.66
2017-10-23T14:47:27.687Z,94184.70
2017-10-23T14:49:56.588Z,94190.58
2017-10-23T14:52:24.731Z,94182.26
2017-10-23T14:54:52.650Z,94186.32
2017-10-23T14:57:20.716Z,94191.28
2017-10-23T14:59:48.721Z,94187.31
2017-10-23T15:02:16.692Z,94206.16
2017-10-23T15:04:45.690Z,94206.69
2017-10-23T15:07:13.821Z,94206.27
2017-10-23T15:09:42.602Z,94207.38
2017-10-23T15:12:11.081Z,94205.59
2017-10-23T15:14:38.960Z,94208.09
2017-10-23T15:17:06.804Z,94201.61
2017-10-23T15:19:34.670Z,94210.44
2017-10-23T15:22:02.494Z,94214.64
2017-10-23T15:24:30.359Z,94214.33
2017-10-23T15:26:58.114Z,94219.20
2017-10-23T15:29:27.021Z,94223.27
2017-10-23T15:31:54.751Z,94221.67
2017-10-23T15:34:22.614Z,94224.96
2017-10-23T15:36:50.372Z,94230.70
2017-10-23T15:39:18.221Z,94233.80
2017-10-23T15:41:46.776Z,94238.66
2017-10-23T15:44:15.959Z,94222.09
2017-10-23T15:46:43.824Z,94246.09
2017-10-23T15:49:12.638Z,94238.75
2017-10-23T15:51:41.512Z,94227.72
2017-10-23T15:54:10.180Z,94227.84
2017-10-23T15:56:38.917Z,94237.47
2017-10-23T15:59:06.712Z,94235.66
2017-10-23T16:01:34.451Z,94240.80
2017-10-23T16:04:02.159Z,94232.07
2017-10-23T16:06:29.889Z,94252.97
2017-10-23T16:08:57.586Z,94247.19
2017-10-23T16:11:25.711Z,94254.92
2017-10-23T16:13:53.811Z,94255.03
2017-10-23T16:16:21.765Z,94254.80
2017-10-23T16:18:49.505Z,94257.75
2017-10-23T16:21:17.780Z,94247.04
2017-10-23T16:23:45.597Z,94258.38
2017-10-23T16:26:13.394Z,94266.77
2017-10-23T16:28:41.205Z,94265.48
2017-10-23T16:31:08.978Z,94257.31
2017-10-23T16:33:36.808Z,94256.20
2017-10-23T16:36:06.803Z,94259.28
2017-10-23T16:38:34.597Z,94268.15
2017-10-23T16:41:03.523Z,94273.98
2017-10-23T16:43:32.193Z,94280.44
2017-10-23T16:46:00.027Z,94275.45
2017-10-23T16:48:27.824Z,94283.48
2017-10-23T16:50:55.591Z,94281.75
2017-10-23T16:53:23.456Z,94285.88
2017-10-23T16:55:51.213Z,94289.33
2017-10-23T16:58:20.361Z,94292.20
2017-10-23T17:00:48.254Z,94295.35
2017-10-23T17:03:16.481Z,94291.36
2017-10-23T17:05:44.828Z,94282.44
2017-10-23T17:08:12.720Z,94293.73
2017-10-23T17:10:40.604Z,94290.22
2017-10-23T17:13:08.762Z,94302.23
2017-10-23T17:15:37.582Z,94324.02
2017-10-23T17:18:05.729Z,94327.24
2017-10-23T17:20:33.813Z,94321.08
2017-10-23T17:23:01.591Z,94331.37
2017-10-23T17:25:30.051Z,94340.39
2017-10-23T17:27:57.885Z,94345.53
2017-10-23T17:30:26.594Z,94354.45
2017-10-23T17:32:55.441Z,94347.30
2017-10-23T17:35:23.924Z,94343.64
2017-10-23T17:37:52.893Z,94354.67
2017-10-23T17:40:23.004Z,94355.09
2017-10-23T17:42:50.942Z,94360.13
2017-10-23T17:45:18.920Z,94362.77
2017-10-23T17:47:47.322Z,94365.67
2017-10-23T17:50:16.035Z,94357.34
2017-10-23T17:52:44.470Z,94360.42
2017-10-23T17:55:12.195Z,94358.00
2017-10-23T17:57:40.706Z,94359.97
2017-10-23T18:00:09.090Z,94364.27
2017-10-23T18:02:37.090Z,94362.39
2017-10-23T18:05:05.100Z,94365.25
2017-10-23T18:07:32.900Z,94370.34
2017-10-23T18:10:00.734Z,94361.97
2017-10-23T18:12:28.522Z,94374.05
2017-10-23T18:14:56.909Z,94362.41
2017-10-23T18:17:24.985Z,94379.83
2017-10-23T18:19:53.187Z,94388.48
2017-10-23T18:22:21.189Z,94383.37
2017-10-23T18:24:49.936Z,94383.73
2017-10-23T18:27:18.996Z,94385.73
2017-10-23T18:29:46.951Z,94386.94
2017-10-23T18:32:14.763Z,94386.91
2017-10-23T18:34:47.229Z,94395.42
2017-10-23T18:37:16.289Z,94391.79
2017-10-23T18:39:44.198Z,94403.41
2017-10-23T18:42:13.075Z,94399.05
2017-10-23T18:44:41.224Z,94399.75
2017-10-23T18:47:09.473Z,94405.00
2017-10-23T18:49:38.227Z,94407.47
2017-10-23T18:52:05.967Z,94422.13
2017-10-23T18:54:33.751Z,94414.72
2017-10-23T18:57:02.583Z,94426.05
2017-10-23T18:59:30.848Z,94428.23
2017-10-23T19:01:58.669Z,94433.09
2017-10-23T19:04:26.406Z,94422.06
2017-10-23T19:06:54.140Z,94425.05
2017-10-23T19:09:21.940Z,94425.84
2017-10-23T19:11:49.789Z,94423.72
2017-10-23T19:14:18.385Z,94422.83
2017-10-23T19:16:46.392Z,94425.26
2017-10-23T19:19:15.176Z,94436.27
2017-10-23T19:21:43.048Z,94437.83
2017-10-23T19:24:11.562Z,94436.54
2017-10-23T19:26:39.364Z,94437.03
2017-10-23T19:29:07.262Z,94435.67
2017-10-23T19:31:35.091Z,94440.84
2017-10-23T19:34:03.887Z,94439.20
2017-10-23T19:36:31.711Z,94447.35
2017-10-23T19:39:00.069Z,94447.50
2017-10-23T19:41:28.863Z,94451.53
2017-10-23T19:43:56.789Z,94452.42
2017-10-23T19:46:25.876Z,94454.38
2017-10-23T19:48:53.677Z,94453.56
2017-10-23T19:51:22.065Z,94457.48
2017-10-23T19:53:49.907Z,94463.07
2017-10-23T19:56:18.665Z,94460.87
2017-10-23T19:58:46.452Z,94466.22
2017-10-23T20:01:14.496Z,94460.84
2017-10-23T20:03:43.444Z,94471.23
2017-10-23T20:06:14.193Z,94472.24
2017-10-23T20:08:42.782Z,94473.56
2017-10-23T20:11:10.638Z,94465.20
2017-10-23T20:13:38.690Z,94463.02
2017-10-23T20:18:57.729Z,94477.44
2017-10-23T20:21:26.176Z,94476.46
2017-10-23T20:23:54.050Z,94477.23
2017-10-23T20:26:23.345Z,94480.61
2017-10-23T20:28:51.677Z,94478.86
2017-10-23T20:31:19.752Z,94485.31
2017-10-23T20:33:47.841Z,94488.41
2017-10-23T20:36:16.891Z,94486.41
2017-10-23T20:38:46.852Z,94500.34
2017-10-23T20:41:14.655Z,94502.58
2017-10-23T20:43:42.433Z,94508.81
2017-10-23T20:46:10.452Z,94505.98
2017-10-23T20:48:38.170Z,94502.12
2017-10-23T20:51:07.201Z,94491.70
2017-10-23T20:53:35.058Z,94502.52
2017-10-23T20:56:02.822Z,94507.91
2017-10-23T20:58:30.630Z,94511.50
2017-10-23T21:01:00.492Z,94516.81
2017-10-23T21:03:28.619Z,94519.17
2017-10-23T21:05:56.727Z,94519.58
2017-10-23T21:08:25.037Z,94525.10
2017-10-23T21:10:52.828Z,94519.23
2017-10-23T21:13:21.820Z,94524.92
2017-10-23T21:15:49.610Z,94529.59
2017-10-23T21:18:17.330Z,94524.48
2017-10-23T21:20:46.367Z,94533.06
2017-10-23T21:23:14.133Z,94536.05
2017-10-23T21:25:41.901Z,94544.63
2017-10-23T21:28:09.608Z,94554.03
2017-10-23T21:30:39.562Z,94549.88
2017-10-23T21:33:08.670Z,94549.08
2017-10-23T21:35:36.397Z,94548.55
2017-10-23T21:38:04.229Z,94551.27
2017-10-23T21:40:32.070Z,94549.35
2017-10-23T21:42:59.824Z,94553.63
2017-10-23T21:45:27.575Z,94552.73
2017-10-23T21:48:04.870Z,94546.77
2017-10-23T21:50:32.611Z,94549.39
2017-10-23T21:53:00.365Z,94561.72
2017-10-23T21:55:28.111Z,94559.72
2017-10-23T21:57:55.807Z,94557.02
2017-10-23T22:00:23.577Z,94562.70
2017-10-23T22:02:51.338Z,94556.16
2017-10-23T22:05:19.985Z,94563.14
2017-10-23T22:07:47.706Z,94557.45
2017-10-23T22:10:17.614Z,94562.98
2017-10-23T22:12:45.666Z,94569.47
2017-10-23T22:15:13.726Z,94560.23
2017-10-23T22:17:41.852Z,94561.95
2017-10-23T22:20:09.583Z,94556.84
2017-10-23T22:22:37.277Z,94568.98
2017-10-23T22:25:05.063Z,94581.68
2017-10-23T22:27:32.772Z,94570.73
2017-10-23T22:30:00.519Z,94574.97
2017-10-23T22:32:28.208Z,94558.55
2017-10-23T22:34:55.881Z,94564.16
2017-10-23T22:37:23.593Z,94579.59
2017-10-23T22:39:51.331Z,94575.19
2017-10-23T22:42:19.073Z,94570.70
2017-10-23T22:44:46.760Z,94572.70
2017-10-23T22:47:14.581Z,94583.27
2017-10-23T22:49:42.305Z,94585.17
2017-10-23T22:52:10.004Z,94588.83
2017-10-23T22:54:37.776Z,94594.95
2017-10-23T22:57:05.678Z,94605.34
2017-10-23T22:59:33.519Z,94601.69
2017-10-23T23:02:01.175Z,94604.36
2017-10-23T23:04:28.917Z,94612.05
2017-10-23T23:06:56.705Z,94599.75
2017-10-23T23:09:24.425Z,94605.86
2017-10-23T23:11:52.123Z,94602.25
2017-10-23T23:14:19.792Z,94605.32
2017-10-23T23:16:47.501Z,94614.23
2017-10-23T23:19:15.247Z,94602.21
2017-10-23T23:21:42.954Z,94613.42
2017-10-23T23:24:10.743Z,94610.72
2017-10-23T23:26:38.524Z,94614.50
2017-10-23T23:29:06.277Z,94609.73
2017-10-23T23:31:34.017Z,94611.91
2017-10-23T23:34:01.757Z,94618.02
2017-10-23T23:36:29.467Z,94604.66
2017-10-23T23:38:57.182Z,94606.86
2017-10-23T23:41:24.907Z,94602.27
2017-10-23T23:43:52.622Z,94591.39
2017-10-23T23:46:20.336Z,94599.72
2017-10-23T23:48:48.008Z,94593.45
2017-10-23T23:51:15.851Z,94598.34
2017-10-23T23:53:43.507Z,94606.41
2017-10-23T23:56:11.183Z,94604.45
2017-10-23T23:58:38.946Z,94611.21
